createdAt,value
2022-10-19T00:00:31.859Z,13.54
2022-10-19T00:01:31.848Z,13.54
2022-10-19T00:02:31.883Z,13.49
2022-10-19T00:03:31.839Z,13.51
2022-10-19T00:04:31.799Z,13.54
2022-10-19T00:05:31.799Z,13.51
2022-10-19T00:06:31.779Z,13.51
2022-10-19T00:07:32.129Z,13.49
2022-10-19T00:08:31.771Z,13.49
2022-10-19T00:09:31.729Z,13.49
2022-10-19T00:10:31.734Z,13.52
2022-10-19T00:11:31.711Z,13.51
2022-10-19T00:12:31.691Z,13.49
2022-10-19T00:13:31.736Z,13.51
2022-10-19T00:14:31.677Z,13.56
2022-10-19T00:15:31.693Z,13.56
2022-10-19T00:16:31.652Z,13.56
2022-10-19T00:17:32.037Z,13.56
2022-10-19T00:18:31.633Z,13.56
2022-10-19T00:19:31.611Z,13.55
2022-10-19T00:20:31.616Z,13.55
2022-10-19T00:21:31.604Z,13.55
2022-10-19T00:22:31.936Z,13.51
2022-10-19T00:23:31.576Z,13.47
2022-10-19T00:24:31.552Z,13.46
2022-10-19T00:25:31.552Z,13.44
2022-10-19T00:26:31.519Z,13.46
2022-10-19T00:27:31.507Z,13.46
2022-10-19T00:28:31.590Z,13.44
2022-10-19T00:29:31.483Z,13.40
2022-10-19T00:30:31.493Z,13.37
2022-10-19T00:31:31.458Z,13.38
2022-10-19T00:32:31.599Z,13.44
2022-10-19T00:33:31.444Z,13.44
2022-10-19T00:34:31.406Z,13.44
2022-10-19T00:35:31.399Z,13.46
2022-10-19T00:36:31.408Z,13.47
2022-10-19T00:37:31.372Z,13.44
2022-10-19T00:38:31.412Z,13.38
2022-10-19T00:39:31.345Z,13.36
2022-10-19T00:40:31.332Z,13.33
2022-10-19T00:41:31.337Z,13.33
2022-10-19T00:42:31.520Z,13.27
2022-10-19T00:43:31.308Z,13.27
2022-10-19T00:44:31.325Z,13.24
2022-10-19T00:45:31.297Z,13.22
2022-10-19T00:46:31.248Z,13.21
2022-10-19T00:47:31.272Z,13.15
2022-10-19T00:48:31.226Z,13.14
2022-10-19T00:49:31.206Z,13.11
2022-10-19T00:50:31.197Z,13.09
2022-10-19T00:51:31.203Z,13.07
2022-10-19T00:52:31.469Z,13.07
2022-10-19T00:53:31.178Z,13.06
2022-10-19T00:54:31.139Z,13.03
2022-10-19T00:55:31.133Z,13.07
2022-10-19T00:56:31.140Z,13.07
2022-10-19T00:57:31.118Z,13.06
2022-10-19T00:58:31.101Z,13.06
2022-10-19T00:59:31.077Z,13.09
2022-10-19T01:00:31.058Z,13.04
2022-10-19T01:01:31.103Z,13.02
2022-10-19T01:02:31.495Z,12.97
2022-10-19T01:03:31.039Z,12.96
2022-10-19T01:04:31.011Z,12.93
2022-10-19T01:05:31.001Z,12.92
2022-10-19T01:06:30.990Z,12.92
2022-10-19T01:07:32.201Z,12.92
2022-10-19T01:08:30.970Z,12.89
2022-10-19T01:09:30.956Z,12.85
2022-10-19T01:10:30.929Z,12.85
2022-10-19T01:11:30.923Z,12.84
2022-10-19T01:12:30.901Z,12.79
2022-10-19T01:13:30.911Z,12.77
2022-10-19T01:14:30.881Z,12.77
2022-10-19T01:15:30.882Z,12.77
2022-10-19T01:16:30.860Z,12.75
2022-10-19T01:17:30.991Z,12.75
2022-10-19T01:18:30.852Z,12.78
2022-10-19T01:19:30.825Z,12.78
2022-10-19T01:20:30.812Z,12.82
2022-10-19T01:21:30.790Z,12.82
2022-10-19T01:22:30.783Z,12.84
2022-10-19T01:23:30.773Z,12.82
2022-10-19T01:24:30.767Z,12.78
2022-10-19T01:25:30.737Z,12.74
2022-10-19T01:26:30.722Z,12.71
2022-10-19T01:27:30.845Z,12.69
2022-10-19T01:28:30.745Z,12.71
2022-10-19T01:29:30.696Z,12.71
2022-10-19T01:30:30.675Z,12.69
2022-10-19T01:31:30.654Z,12.66
2022-10-19T01:32:30.653Z,12.67
2022-10-19T01:33:30.635Z,12.69
2022-10-19T01:34:30.625Z,12.75
2022-10-19T01:35:30.613Z,12.77
2022-10-19T01:36:30.628Z,12.78
2022-10-19T01:37:30.757Z,12.79
2022-10-19T01:38:30.576Z,12.81
2022-10-19T01:39:30.566Z,12.79
2022-10-19T01:40:30.547Z,12.77
2022-10-19T01:41:30.535Z,12.78
2022-10-19T01:42:30.531Z,12.79
2022-10-19T01:43:30.513Z,12.79
2022-10-19T01:44:30.497Z,12.78
2022-10-19T01:45:30.477Z,12.78
2022-10-19T01:46:30.477Z,12.75
2022-10-19T01:47:30.555Z,12.71
2022-10-19T01:48:30.440Z,12.70
2022-10-19T01:49:30.429Z,12.66
2022-10-19T01:50:30.450Z,12.66
2022-10-19T01:51:30.414Z,12.63
2022-10-19T01:52:30.493Z,12.60
2022-10-19T01:53:30.403Z,12.57
2022-10-19T01:54:30.369Z,12.51
2022-10-19T01:55:30.350Z,12.54
2022-10-19T01:56:30.343Z,12.54
2022-10-19T01:57:37.825Z,12.52
2022-10-19T01:58:30.306Z,12.52
2022-10-19T01:59:30.295Z,12.51
2022-10-19T02:00:30.286Z,12.51
2022-10-19T02:01:30.265Z,12.51
2022-10-19T02:02:30.471Z,12.51
2022-10-19T02:03:30.251Z,12.51
2022-10-19T02:04:31.235Z,12.54
2022-10-19T02:05:30.225Z,12.54
2022-10-19T02:06:30.209Z,12.57
2022-10-19T02:07:30.200Z,12.54
2022-10-19T02:08:30.188Z,12.56
2022-10-19T02:09:30.177Z,12.54
2022-10-19T02:10:30.260Z,12.52
2022-10-19T02:11:30.158Z,12.51
2022-10-19T02:12:30.302Z,12.49
2022-10-19T02:13:30.181Z,12.49
2022-10-19T02:14:32.157Z,12.49
2022-10-19T02:15:30.081Z,12.44
2022-10-19T02:16:30.104Z,12.37
2022-10-19T02:17:30.097Z,12.34
2022-10-19T02:18:30.101Z,12.31
2022-10-19T02:19:30.116Z,12.24
2022-10-19T02:20:30.029Z,12.19
2022-10-19T02:21:30.021Z,12.15
2022-10-19T02:22:30.000Z,12.15
2022-10-19T02:23:29.979Z,12.16
2022-10-19T02:24:30.040Z,12.13
2022-10-19T02:25:30.082Z,12.12
2022-10-19T02:26:30.051Z,12.11
2022-10-19T02:27:29.961Z,12.12
2022-10-19T02:28:29.975Z,12.13
2022-10-19T02:29:29.971Z,12.15
2022-10-19T02:30:30.014Z,12.16
2022-10-19T02:31:29.981Z,12.16
2022-10-19T02:32:29.891Z,12.16
2022-10-19T02:33:29.853Z,12.15
2022-10-19T02:34:29.942Z,12.06
2022-10-19T02:35:29.834Z,12.06
2022-10-19T02:36:29.822Z,12.08
2022-10-19T02:37:29.851Z,12.08
2022-10-19T02:38:29.814Z,12.08
2022-10-19T02:39:29.783Z,12.09
2022-10-19T02:40:29.882Z,12.12
2022-10-19T02:41:29.752Z,12.12
2022-10-19T02:42:30.941Z,12.15
2022-10-19T02:43:29.732Z,12.11
2022-10-19T02:44:29.724Z,12.02
2022-10-19T02:45:29.714Z,11.97
2022-10-19T02:46:29.730Z,11.93
2022-10-19T02:47:29.688Z,11.90
2022-10-19T02:48:29.678Z,11.89
2022-10-19T02:49:29.660Z,11.87
2022-10-19T02:50:29.666Z,11.86
2022-10-19T02:51:29.632Z,11.85
2022-10-19T02:52:29.615Z,11.85
2022-10-19T02:53:29.602Z,11.83
2022-10-19T02:54:29.594Z,11.82
2022-10-19T02:55:29.734Z,11.83
2022-10-19T02:56:29.652Z,11.83
2022-10-19T02:57:29.665Z,11.80
2022-10-19T02:58:29.564Z,11.78
2022-10-19T02:59:29.574Z,11.78
2022-10-19T03:00:29.611Z,11.78
2022-10-19T03:01:31.562Z,11.80
2022-10-19T03:02:29.486Z,11.82
2022-10-19T03:03:29.501Z,11.85
2022-10-19T03:04:29.505Z,11.86
2022-10-19T03:05:29.540Z,11.86
2022-10-19T03:06:29.528Z,11.87
2022-10-19T03:07:29.417Z,11.86
2022-10-19T03:08:29.427Z,11.83
2022-10-19T03:09:29.462Z,11.82
2022-10-19T03:10:29.477Z,11.82
2022-10-19T03:11:29.450Z,11.75
2022-10-19T03:12:29.364Z,11.74
2022-10-19T03:13:29.358Z,11.75
2022-10-19T03:14:29.368Z,11.77
2022-10-19T03:15:29.411Z,11.77
2022-10-19T03:16:29.385Z,11.78
2022-10-19T03:17:30.323Z,11.80
2022-10-19T03:18:29.304Z,11.82
2022-10-19T03:19:29.298Z,11.82
2022-10-19T03:20:29.340Z,11.83
2022-10-19T03:21:29.320Z,11.86
2022-10-19T03:22:29.330Z,11.87
2022-10-19T03:23:29.236Z,11.93
2022-10-19T03:24:29.233Z,11.93
2022-10-19T03:25:29.289Z,11.94
2022-10-19T03:26:29.242Z,11.94
2022-10-19T03:27:29.293Z,11.90
2022-10-19T03:28:30.200Z,11.90
2022-10-19T03:29:29.155Z,11.87
2022-10-19T03:30:29.130Z,11.87
2022-10-19T03:31:29.122Z,11.87
2022-10-19T03:32:29.183Z,11.87
2022-10-19T03:33:29.233Z,11.87
2022-10-19T03:34:29.109Z,11.86
2022-10-19T03:35:29.143Z,11.86
2022-10-19T03:36:29.115Z,11.89
2022-10-19T03:37:29.119Z,11.89
2022-10-19T03:38:29.178Z,11.86
2022-10-19T03:39:29.012Z,11.85
2022-10-19T03:40:29.073Z,11.82
2022-10-19T03:41:29.033Z,11.82
2022-10-19T03:42:29.100Z,11.83
2022-10-19T03:43:29.054Z,11.83
2022-10-19T03:44:28.944Z,11.85
2022-10-19T03:45:28.962Z,11.85
2022-10-19T03:46:28.913Z,11.83
2022-10-19T03:47:28.903Z,11.82
2022-10-19T03:48:28.893Z,11.83
2022-10-19T03:49:28.877Z,11.86
2022-10-19T04:02:32.671Z,11.83
2022-10-19T04:03:32.718Z,11.82
2022-10-19T04:04:32.630Z,11.82
2022-10-19T04:05:32.628Z,11.78
2022-10-19T04:06:32.607Z,11.80
2022-10-19T04:07:32.814Z,11.90
2022-10-19T04:08:32.579Z,12.01
2022-10-19T04:09:32.579Z,12.08
2022-10-19T04:10:32.559Z,12.15
2022-10-19T04:11:33.567Z,12.16
2022-10-19T04:12:32.535Z,12.20
2022-10-19T04:13:32.519Z,12.20
2022-10-19T04:14:39.191Z,12.24
2022-10-19T04:15:33.511Z,12.21
2022-10-19T04:16:33.489Z,12.20
2022-10-19T04:17:32.899Z,12.23
2022-10-19T04:18:32.450Z,12.26
2022-10-19T04:19:32.443Z,12.31
2022-10-19T04:20:32.449Z,12.29
2022-10-19T04:21:32.422Z,12.23
2022-10-19T04:22:32.400Z,12.21
2022-10-19T04:23:32.389Z,12.21
2022-10-19T04:24:32.373Z,12.24
2022-10-19T04:25:32.381Z,12.24
2022-10-19T04:26:32.357Z,12.21
2022-10-19T04:27:32.572Z,12.16
2022-10-19T04:28:32.399Z,12.13
2022-10-19T04:29:32.313Z,12.11
2022-10-19T04:30:32.311Z,12.11
2022-10-19T04:31:33.280Z,12.11
2022-10-19T04:32:32.270Z,12.09
2022-10-19T04:33:32.359Z,12.08
2022-10-19T04:34:35.169Z,12.08
2022-10-19T04:35:33.252Z,12.09
2022-10-19T04:36:33.215Z,12.11
2022-10-19T04:37:32.561Z,12.13
2022-10-19T04:38:32.206Z,12.21
2022-10-19T04:39:32.178Z,12.24
2022-10-19T04:40:32.176Z,12.23
2022-10-19T04:41:32.152Z,12.19
2022-10-19T04:42:32.136Z,12.15
2022-10-19T04:43:32.135Z,12.12
2022-10-19T04:44:32.107Z,12.11
2022-10-19T04:45:33.114Z,12.16
2022-10-19T04:46:32.084Z,12.19
2022-10-19T04:47:32.498Z,12.19
2022-10-19T04:48:32.064Z,12.23
2022-10-19T04:49:32.044Z,12.23
2022-10-19T04:50:32.057Z,12.23
2022-10-19T04:51:32.018Z,12.21
2022-10-19T04:52:32.005Z,12.19
2022-10-19T04:53:32.003Z,12.16
2022-10-19T04:54:31.976Z,12.23
2022-10-19T04:55:31.984Z,12.23
2022-10-19T04:56:32.945Z,12.24
2022-10-19T04:57:32.237Z,12.27
2022-10-19T04:58:31.936Z,12.26
2022-10-19T04:59:31.916Z,12.26
2022-10-19T05:00:31.908Z,12.30
2022-10-19T05:01:31.895Z,12.30
2022-10-19T05:02:31.877Z,12.30
2022-10-19T05:03:31.883Z,12.29
2022-10-19T05:04:31.858Z,12.27
2022-10-19T05:05:31.848Z,12.29
2022-10-19T05:06:31.822Z,12.29
2022-10-19T05:07:32.111Z,12.29
2022-10-19T05:08:31.801Z,12.26
2022-10-19T05:09:31.778Z,12.26
2022-10-19T05:10:31.780Z,12.27
2022-10-19T05:11:31.759Z,12.26
2022-10-19T05:12:31.756Z,12.26
2022-10-19T05:13:31.739Z,12.21
2022-10-19T05:14:31.720Z,12.19
2022-10-19T05:15:31.721Z,12.16
2022-10-19T05:16:31.702Z,12.15
2022-10-19T05:17:32.014Z,12.16
2022-10-19T05:18:31.675Z,12.15
2022-10-19T05:19:31.650Z,12.11
2022-10-19T05:20:31.704Z,12.08
2022-10-19T05:21:31.633Z,12.09
2022-10-19T05:22:31.611Z,12.09
2022-10-19T05:24:31.582Z,12.09
2022-10-19T05:25:31.613Z,12.12
2022-10-19T05:26:31.561Z,12.13
2022-10-19T05:27:31.810Z,12.11
2022-10-19T05:28:31.579Z,12.08
2022-10-19T05:29:31.523Z,12.09
2022-10-19T05:30:32.516Z,12.12
2022-10-19T05:31:31.492Z,12.09
2022-10-19T05:32:31.482Z,12.08
2022-10-19T05:33:31.472Z,12.08
2022-10-19T05:34:31.453Z,12.05
2022-10-19T05:35:31.460Z,12.02
2022-10-19T05:36:31.423Z,11.99
2022-10-19T05:37:31.566Z,11.97
2022-10-19T05:38:31.403Z,11.94
2022-10-19T05:39:31.384Z,11.96
2022-10-19T05:40:31.831Z,11.94
2022-10-19T05:41:31.363Z,11.94
2022-10-19T05:42:31.503Z,11.90
2022-10-19T05:43:31.344Z,11.87
2022-10-19T05:44:31.362Z,11.83
2022-10-19T05:45:31.337Z,11.77
2022-10-19T05:46:31.294Z,11.78
2022-10-19T05:47:31.350Z,11.78
2022-10-19T05:48:31.275Z,11.78
2022-10-19T05:49:31.255Z,11.82
2022-10-19T05:50:31.256Z,11.82
2022-10-19T05:51:31.242Z,11.83
2022-10-19T05:52:31.215Z,11.83
2022-10-19T05:53:31.234Z,11.85
2022-10-19T05:54:31.295Z,11.85
2022-10-19T05:55:31.194Z,11.90
2022-10-19T05:56:31.178Z,11.93
2022-10-19T05:57:31.369Z,11.94
2022-10-19T05:58:31.137Z,11.97
2022-10-19T05:59:31.130Z,11.96
2022-10-19T06:00:31.127Z,11.99
2022-10-19T06:01:31.156Z,11.99
2022-10-19T06:02:31.098Z,11.99
2022-10-19T06:03:31.086Z,11.93
2022-10-19T06:04:31.059Z,11.93
2022-10-19T06:05:31.065Z,11.93
2022-10-19T06:06:31.047Z,11.97
2022-10-19T06:07:31.173Z,11.96
2022-10-19T06:08:31.029Z,11.90
2022-10-19T06:09:31.020Z,11.93
2022-10-19T06:10:31.019Z,11.90
2022-10-19T06:11:30.979Z,11.93
2022-10-19T06:12:30.978Z,11.90
2022-10-19T06:13:30.989Z,11.93
2022-10-19T06:14:30.932Z,11.90
2022-10-19T06:15:30.953Z,11.90
2022-10-19T06:16:30.939Z,11.90
2022-10-19T06:17:32.116Z,11.94
2022-10-19T06:18:30.900Z,11.97
2022-10-19T06:19:30.872Z,11.97
2022-10-19T06:20:30.870Z,11.94
2022-10-19T06:21:30.877Z,11.93
2022-10-19T06:22:30.850Z,11.90
2022-10-19T06:23:30.902Z,11.96
2022-10-19T06:24:30.811Z,11.97
2022-10-19T06:25:30.816Z,11.99
2022-10-19T06:26:30.791Z,12.01
2022-10-19T06:27:30.856Z,11.99
2022-10-19T06:28:30.761Z,12.01
2022-10-19T06:29:30.754Z,11.94
2022-10-19T06:30:30.788Z,11.94
2022-10-19T06:31:30.733Z,11.96
2022-10-19T06:32:30.703Z,11.97
2022-10-19T06:33:30.692Z,11.85
2022-10-19T06:34:30.717Z,11.78
2022-10-19T06:35:30.683Z,11.80
2022-10-19T06:36:30.664Z,11.82
2022-10-19T06:37:30.643Z,11.83
2022-10-19T06:38:30.625Z,11.83
2022-10-19T06:39:30.632Z,11.80
2022-10-19T06:40:30.636Z,11.83
2022-10-19T06:41:30.607Z,11.85
2022-10-19T06:42:30.584Z,11.83
2022-10-19T06:43:30.568Z,11.87
2022-10-19T06:44:30.544Z,11.89
2022-10-19T06:45:35.529Z,11.89
2022-10-19T06:46:31.536Z,11.90
2022-10-19T06:47:30.555Z,11.90
2022-10-19T06:48:30.495Z,11.97
2022-10-19T06:49:30.485Z,12.01
2022-10-19T06:50:30.475Z,12.01
2022-10-19T06:51:30.486Z,11.99
2022-10-19T06:52:30.537Z,12.01
2022-10-19T06:53:30.456Z,12.02
2022-10-19T06:54:30.417Z,12.06
2022-10-19T06:55:30.426Z,12.05
2022-10-19T06:56:30.421Z,12.06
2022-10-19T06:57:30.386Z,12.06
2022-10-19T06:58:30.391Z,12.04
2022-10-19T06:59:30.356Z,12.04
2022-10-19T07:00:30.417Z,12.02
2022-10-19T07:01:30.355Z,12.02
2022-10-19T07:02:30.317Z,12.04
2022-10-19T07:03:30.318Z,12.04
2022-10-19T07:04:30.288Z,12.08
2022-10-19T07:05:30.289Z,12.09
2022-10-19T07:06:30.267Z,12.11
2022-10-19T07:07:30.294Z,12.15
2022-10-19T07:08:30.248Z,12.19
2022-10-19T07:09:30.219Z,12.20
2022-10-19T07:10:30.218Z,12.24
2022-10-19T07:11:30.231Z,12.27
2022-10-19T07:12:30.189Z,12.30
2022-10-19T07:13:31.196Z,12.30
2022-10-19T07:14:30.159Z,12.31
2022-10-19T07:15:30.163Z,12.29
2022-10-19T07:16:30.141Z,12.26
2022-10-19T07:17:30.120Z,12.27
2022-10-19T07:18:30.129Z,12.26
2022-10-19T07:19:30.089Z,12.24
2022-10-19T07:20:30.093Z,12.29
2022-10-19T07:21:30.085Z,12.31
2022-10-19T07:22:30.061Z,12.29
2022-10-19T07:23:30.049Z,12.27
2022-10-19T07:24:30.045Z,12.29
2022-10-19T07:25:30.021Z,12.30
2022-10-19T07:26:30.012Z,12.31
2022-10-19T07:27:32.886Z,12.34
2022-10-19T07:28:30.994Z,12.37
2022-10-19T07:29:29.971Z,12.41
2022-10-19T07:30:29.960Z,12.44
2022-10-19T07:31:29.975Z,12.49
2022-10-19T07:32:29.923Z,12.52
2022-10-19T07:33:30.922Z,12.52
2022-10-19T07:34:29.904Z,12.51
2022-10-19T07:35:29.899Z,12.49
2022-10-19T07:36:29.885Z,12.51
2022-10-19T07:37:29.863Z,12.52
2022-10-19T07:38:29.860Z,12.54
2022-10-19T07:39:29.835Z,12.59
2022-10-19T07:40:29.824Z,12.56
2022-10-19T07:41:29.816Z,12.48
2022-10-19T07:42:29.816Z,12.44
2022-10-19T07:43:29.783Z,12.44
2022-10-19T07:44:29.773Z,12.44
2022-10-19T07:45:29.789Z,12.45
2022-10-19T07:46:29.764Z,12.48
2022-10-19T07:47:29.735Z,12.52
2022-10-19T07:48:29.725Z,12.54
2022-10-19T07:49:29.705Z,12.56
2022-10-19T07:50:29.699Z,12.54
2022-10-19T07:52:31.838Z,12.66
2022-10-19T07:53:29.656Z,12.69
2022-10-19T07:54:29.637Z,12.71
2022-10-19T07:55:29.627Z,12.77
2022-10-19T07:56:29.637Z,12.82
2022-10-19T07:57:29.608Z,12.87
2022-10-19T07:58:29.587Z,12.87
2022-10-19T07:59:29.578Z,12.84
2022-10-19T08:00:29.624Z,12.82
2022-10-19T08:01:29.568Z,12.79
2022-10-19T08:02:39.439Z,12.77
2022-10-19T08:04:14.223Z,12.77
2022-10-19T08:04:56.027Z,12.78
2022-10-19T08:05:30.488Z,12.79
2022-10-19T08:06:29.512Z,12.79
2022-10-19T08:07:29.466Z,12.81
2022-10-19T08:08:29.500Z,12.87
2022-10-19T08:10:30.435Z,12.93
2022-10-19T08:11:29.420Z,12.92
2022-10-19T08:12:29.400Z,12.93
2022-10-19T08:13:29.399Z,12.92
2022-10-19T08:14:29.406Z,12.88
2022-10-19T08:15:29.379Z,12.88
2022-10-19T08:16:29.371Z,12.87
2022-10-19T08:17:29.332Z,12.81
2022-10-19T08:18:29.368Z,12.78
2022-10-19T08:19:29.310Z,12.74
2022-10-19T08:20:29.348Z,12.75
2022-10-19T08:21:29.283Z,12.75
2022-10-19T08:22:29.270Z,12.71
2022-10-19T08:23:29.247Z,12.74
2022-10-19T08:24:29.241Z,12.75
2022-10-19T08:25:30.212Z,12.84
2022-10-19T08:26:29.222Z,12.95
2022-10-19T08:27:29.281Z,13.02
2022-10-19T08:28:29.182Z,12.99
2022-10-19T08:29:31.476Z,13.00
2022-10-19T08:30:29.159Z,13.03
2022-10-19T08:31:31.141Z,13.03
2022-10-19T08:32:29.122Z,12.97
2022-10-19T08:33:29.126Z,12.95
2022-10-19T08:34:29.276Z,13.00
2022-10-19T08:35:29.093Z,13.00
2022-10-19T08:36:29.126Z,13.03
2022-10-19T08:37:40.757Z,13.07
2022-10-19T08:38:30.061Z,13.09
2022-10-19T08:39:29.043Z,13.14
2022-10-19T08:40:29.033Z,13.20
2022-10-19T08:41:29.013Z,13.20
2022-10-19T08:42:28.997Z,13.21
2022-10-19T08:43:28.975Z,13.22
2022-10-19T08:44:28.964Z,13.24
2022-10-19T08:45:29.002Z,13.25
2022-10-19T08:46:28.960Z,13.25
2022-10-19T08:47:28.924Z,13.27
2022-10-19T08:48:28.935Z,13.22
2022-10-19T08:49:28.895Z,13.22
2022-10-19T08:50:28.896Z,13.22
2022-10-19T08:51:28.882Z,13.24
2022-10-19T08:52:33.418Z,13.24
2022-10-19T08:53:29.856Z,13.27
2022-10-19T08:54:28.840Z,13.33
2022-10-19T08:55:28.836Z,13.36
2022-10-19T08:57:29.807Z,13.29
2022-10-19T08:58:28.788Z,13.27
2022-10-19T08:59:28.777Z,13.27
2022-10-19T09:00:28.816Z,13.24
2022-10-19T09:01:29.437Z,13.25
2022-10-19T09:02:28.749Z,13.30
2022-10-19T09:03:37.587Z,13.38
2022-10-19T09:04:29.716Z,13.41
2022-10-19T09:05:28.697Z,13.43
2022-10-19T09:06:28.679Z,13.56
2022-10-19T09:07:29.668Z,13.59
2022-10-19T09:08:28.714Z,13.59
2022-10-19T09:09:28.639Z,13.69
2022-10-19T09:10:28.630Z,13.71
2022-10-19T09:11:28.610Z,13.77
2022-10-19T09:12:28.609Z,13.83
2022-10-19T09:13:36.426Z,13.88
2022-10-19T09:14:29.580Z,13.91
2022-10-19T09:15:28.563Z,13.95
2022-10-19T09:16:28.551Z,14.01
2022-10-19T09:17:28.540Z,14.02
2022-10-19T09:18:28.533Z,13.99
2022-10-19T09:19:28.510Z,14.02
2022-10-19T09:20:28.501Z,14.02
2022-10-19T09:21:34.391Z,14.06
2022-10-19T09:22:29.480Z,14.13
2022-10-19T09:23:28.465Z,14.21
2022-10-19T09:24:28.442Z,14.27
2022-10-19T09:25:28.484Z,14.24
2022-10-19T09:26:28.429Z,14.32
2022-10-19T09:27:29.406Z,14.42
2022-10-19T09:28:33.898Z,14.49
2022-10-19T09:29:29.383Z,14.54
2022-10-19T09:30:28.363Z,14.56
2022-10-19T09:31:31.447Z,14.56
2022-10-19T09:32:28.366Z,14.56
2022-10-19T09:33:29.330Z,14.52
2022-10-19T09:34:28.315Z,14.50
2022-10-19T09:35:28.306Z,14.46
2022-10-19T09:38:28.269Z,14.49
2022-10-19T09:39:29.561Z,14.50
2022-10-19T09:40:28.236Z,14.49
2022-10-19T09:41:28.220Z,14.49
2022-10-19T09:42:28.219Z,14.53
2022-10-19T09:43:28.187Z,14.52
2022-10-19T09:44:28.175Z,14.52
2022-10-19T09:45:28.166Z,14.52
2022-10-19T09:46:28.163Z,14.65
2022-10-19T10:03:09.811Z,15.15
2022-10-19T10:04:09.798Z,15.17
2022-10-19T10:05:09.794Z,15.17
2022-10-19T10:06:09.755Z,15.15
2022-10-19T10:07:09.746Z,15.15
2022-10-19T10:08:09.734Z,15.13
2022-10-19T10:09:09.785Z,15.11
2022-10-19T10:10:09.736Z,15.11
2022-10-19T10:11:09.698Z,15.20
2022-10-19T10:12:09.685Z,15.27
2022-10-19T10:13:09.688Z,15.36
2022-10-19T10:14:10.074Z,15.42
2022-10-19T10:15:09.656Z,15.41
2022-10-19T10:16:09.623Z,15.39
2022-10-19T10:17:09.630Z,15.39
2022-10-19T10:18:09.619Z,15.42
2022-10-19T10:19:09.596Z,15.46
2022-10-19T10:20:09.576Z,15.54
2022-10-19T10:21:09.573Z,15.94
2022-10-19T10:22:10.547Z,16.42
2022-10-19T10:23:09.547Z,16.45
2022-10-19T10:24:09.538Z,16.41
2022-10-19T10:25:09.529Z,16.27
2022-10-19T10:26:09.498Z,16.18
2022-10-19T10:27:09.490Z,16.04
2022-10-19T10:28:09.479Z,15.96
2022-10-19T10:29:09.516Z,15.96
2022-10-19T10:30:09.451Z,15.93
2022-10-19T10:31:09.436Z,15.92
2022-10-19T10:32:10.421Z,15.94
2022-10-19T10:33:16.069Z,15.99
2022-10-19T10:34:22.605Z,15.99
2022-10-19T10:35:10.402Z,15.94
2022-10-19T10:36:09.368Z,15.92
2022-10-19T10:37:09.362Z,15.93
2022-10-19T10:38:09.400Z,15.96
2022-10-19T10:39:09.339Z,16.00
2022-10-19T10:40:09.340Z,16.01
2022-10-19T10:41:09.327Z,16.00
2022-10-19T10:42:09.292Z,16.09
2022-10-19T10:43:10.308Z,16.34
2022-10-19T10:44:09.278Z,16.68
2022-10-19T10:45:09.262Z,16.81
2022-10-19T10:46:09.243Z,16.90
2022-10-19T10:47:09.234Z,16.95
2022-10-19T10:48:09.220Z,16.93
2022-10-19T10:49:09.225Z,16.93
2022-10-19T10:50:09.194Z,16.88
2022-10-19T10:51:09.193Z,16.86
2022-10-19T10:52:09.164Z,16.90
2022-10-19T10:53:09.154Z,16.96
2022-10-19T10:54:09.165Z,16.95
2022-10-19T10:55:09.134Z,16.92
2022-10-19T10:56:09.104Z,16.86
2022-10-19T10:57:09.218Z,16.74
2022-10-19T10:58:09.110Z,16.65
2022-10-19T10:59:09.097Z,16.56
2022-10-19T11:00:09.103Z,16.55
2022-10-19T11:01:09.057Z,16.60
2022-10-19T11:02:09.100Z,16.63
2022-10-19T11:03:09.035Z,16.62
2022-10-19T11:04:09.031Z,16.59
2022-10-19T11:05:09.004Z,16.55
2022-10-19T11:06:09.068Z,16.50
2022-10-19T11:07:08.985Z,16.50
2022-10-19T11:08:08.958Z,16.45
2022-10-19T11:09:09.026Z,16.45
2022-10-19T11:10:08.934Z,16.50
2022-10-19T11:11:08.928Z,16.49
2022-10-19T11:12:08.907Z,16.44
2022-10-19T11:13:08.896Z,16.45
2022-10-19T11:14:08.890Z,16.44
2022-10-19T11:15:08.899Z,16.45
2022-10-19T11:16:08.869Z,16.45
2022-10-19T11:17:08.849Z,16.44
2022-10-19T11:18:08.829Z,16.50
2022-10-19T11:19:08.849Z,16.59
2022-10-19T11:20:09.819Z,18.15
2022-10-19T11:21:08.810Z,20.09
2022-10-19T11:22:08.791Z,21.41
2022-10-19T11:23:08.767Z,22.60
2022-10-19T11:24:09.771Z,23.89
2022-10-19T11:25:08.741Z,24.88
2022-10-19T11:26:08.735Z,25.65
2022-10-19T11:27:08.724Z,25.99
2022-10-19T11:28:08.691Z,25.94
2022-10-19T11:29:08.702Z,25.00
2022-10-19T11:30:08.744Z,24.92
2022-10-19T11:31:08.663Z,24.41
2022-10-19T11:32:08.693Z,24.08
2022-10-19T11:33:08.644Z,23.11
2022-10-19T11:34:08.644Z,21.99
2022-10-19T11:35:08.637Z,21.04
2022-10-19T11:36:08.594Z,20.38
2022-10-19T11:37:08.594Z,19.73
2022-10-19T11:38:19.776Z,19.43
2022-10-19T11:39:09.599Z,18.99
2022-10-19T11:40:08.549Z,18.62
2022-10-19T11:41:23.877Z,18.43
2022-10-19T11:42:09.518Z,18.34
2022-10-19T11:43:08.508Z,20.33
2022-10-19T11:44:08.515Z,22.16
2022-10-19T11:45:08.486Z,23.11
2022-10-19T11:46:08.467Z,23.58
2022-10-19T11:47:08.473Z,24.53
2022-10-19T11:48:08.439Z,25.42
2022-10-19T11:49:08.445Z,25.94
2022-10-19T11:51:21.119Z,27.19
2022-10-19T11:52:09.388Z,27.88
2022-10-19T11:53:08.378Z,28.50
2022-10-19T11:54:13.733Z,29.08
2022-10-19T11:55:09.359Z,29.68
2022-10-19T11:56:08.349Z,30.19
2022-10-19T11:57:11.474Z,29.79
2022-10-19T11:58:08.330Z,29.18
2022-10-19T11:59:08.384Z,29.31
2022-10-19T12:00:14.440Z,28.40
2022-10-19T12:01:09.281Z,26.86
2022-10-19T12:02:08.339Z,27.09
2022-10-19T12:03:08.254Z,27.16
2022-10-19T12:04:08.255Z,26.09
2022-10-19T12:05:08.252Z,24.92
2022-10-19T12:06:08.237Z,24.00
2022-10-19T12:07:08.204Z,23.68
2022-10-19T12:08:08.240Z,23.38
2022-10-19T12:09:08.254Z,22.71
2022-10-19T12:10:08.178Z,22.16
2022-10-19T12:11:08.164Z,21.41
2022-10-19T12:12:08.156Z,20.77
2022-10-19T12:13:08.136Z,20.18
2022-10-19T12:14:08.125Z,19.75
2022-10-19T12:15:08.109Z,19.47
2022-10-19T12:16:08.096Z,19.21
2022-10-19T12:17:08.133Z,18.97
2022-10-19T12:18:08.078Z,18.72
2022-10-19T12:19:08.093Z,18.46
2022-10-19T12:20:08.043Z,18.15
2022-10-19T12:21:08.037Z,17.91
2022-10-19T12:22:08.021Z,17.74
2022-10-19T12:23:08.009Z,17.59
2022-10-19T12:24:08.028Z,17.48
2022-10-19T12:25:07.979Z,17.33
2022-10-19T12:26:07.987Z,17.18
2022-10-19T12:27:07.952Z,17.11
2022-10-19T12:28:07.940Z,17.08
2022-10-19T12:29:07.950Z,17.08
2022-10-19T12:30:07.925Z,17.11
2022-10-19T12:31:07.902Z,17.22
2022-10-19T12:32:07.892Z,17.40
2022-10-19T12:33:07.872Z,17.67
2022-10-19T12:34:07.871Z,17.95
2022-10-19T12:35:07.920Z,19.02
2022-10-19T12:36:07.847Z,20.15
2022-10-19T12:37:07.832Z,20.33
2022-10-19T12:38:07.837Z,20.05
2022-10-19T12:39:07.816Z,19.80
2022-10-19T12:40:07.800Z,19.53
2022-10-19T12:41:07.761Z,19.20
2022-10-19T12:42:07.764Z,18.92
2022-10-19T12:43:07.785Z,18.79
2022-10-19T12:44:07.728Z,18.55
2022-10-19T12:45:07.722Z,18.44
2022-10-19T12:46:07.708Z,18.27
2022-10-19T12:47:07.726Z,18.27
2022-10-19T12:48:07.678Z,18.27
2022-10-19T12:49:07.656Z,18.21
2022-10-19T12:50:07.759Z,18.06
2022-10-19T12:51:07.672Z,17.97
2022-10-19T12:52:07.646Z,17.94
2022-10-19T12:53:07.617Z,17.87
2022-10-19T12:54:07.597Z,17.71
2022-10-19T12:55:07.601Z,17.47
2022-10-19T12:56:07.581Z,17.35
2022-10-19T12:57:07.567Z,17.26
2022-10-19T12:58:07.558Z,17.15
2022-10-19T12:59:07.556Z,17.04
2022-10-19T13:00:07.542Z,16.98
2022-10-19T13:01:07.547Z,17.07
2022-10-19T13:02:08.510Z,18.46
2022-10-19T13:03:07.538Z,19.75
2022-10-19T13:04:07.547Z,21.01
2022-10-19T13:05:07.491Z,22.17
2022-10-19T13:06:07.550Z,22.89
2022-10-19T13:07:08.502Z,23.55
2022-10-19T13:08:10.641Z,24.04
2022-10-19T13:09:08.577Z,24.47
2022-10-19T13:10:07.566Z,24.63
2022-10-19T13:11:07.385Z,24.41
2022-10-19T13:12:07.382Z,24.22
2022-10-19T13:14:17.587Z,22.96
2022-10-19T13:15:17.576Z,22.46
2022-10-19T13:16:17.664Z,21.97
2022-10-19T13:17:17.577Z,21.57
2022-10-19T13:18:17.566Z,21.32
2022-10-19T13:19:19.558Z,21.02
2022-10-19T13:20:17.518Z,20.76
2022-10-19T13:21:17.589Z,20.58
2022-10-19T13:22:17.497Z,20.51
2022-10-19T13:23:17.499Z,20.47
2022-10-19T13:24:19.487Z,20.49
2022-10-19T13:25:17.443Z,20.43
2022-10-19T13:26:17.520Z,20.38
2022-10-19T13:27:17.825Z,20.25
2022-10-19T13:28:17.440Z,20.06